sensor_id;sensor_type;location;lat;lon;timestamp;temperature;humidity
9658;DHT22;4867;48.112;11.622;2022-07-29T00:01:00;20.40;99.90
9658;DHT22;4867;48.112;11.622;2022-07-29T00:03:27;20.30;99.90
9658;DHT22;4867;48.112;11.622;2022-07-29T00:05:57;20.30;99.90
9658;DHT22;4867;48.112;11.622;2022-07-29T00:08:26;20.30;99.90
9658;DHT22;4867;48.112;11.622;2022-07-29T00:10:53;20.30;99.90
9658;DHT22;4867;48.112;11.622;2022-07-29T00:13:20;20.30;99.90
9658;DHT22;4867;48.112;11.622;2022-07-29T00:15:58;20.30;99.90
9658;DHT22;4867;48.112;11.622;2022-07-29T00:18:31;20.30;99.90
9658;DHT22;4867;48.112;11.622;2022-07-29T00:20:58;20.30;99.90
9658;DHT22;4867;48.112;11.622;2022-07-29T00:23:25;20.20;99.90
9658;DHT22;4867;48.112;11.622;2022-07-29T00:25:52;20.30;99.90
9658;DHT22;4867;48.112;11.622;2022-07-29T00:28:18;20.30;99.90
9658;DHT22;4867;48.112;11.622;2022-07-29T00:30:45;20.20;99.90
9658;DHT22;4867;48.112;11.622;2022-07-29T00:33:12;20.20;99.90
9658;DHT22;4867;48.112;11.622;2022-07-29T00:35:39;20.30;99.90
9658;DHT22;4867;48.112;11.622;2022-07-29T00:38:14;20.30;99.90
9658;DHT22;4867;48.112;11.622;2022-07-29T00:40:41;20.30;99.90
9658;DHT22;4867;48.112;11.622;2022-07-29T00:43:10;20.20;99.90
9658;DHT22;4867;48.112;11.622;2022-07-29T00:45:37;20.30;99.90
9658;DHT22;4867;48.112;11.622;2022-07-29T00:48:04;20.30;99.90
9658;DHT22;4867;48.112;11.622;2022-07-29T00:50:32;20.30;99.90
9658;DHT22;4867;48.112;11.622;2022-07-29T00:52:59;20.30;99.90
9658;DHT22;4867;48.112;11.622;2022-07-29T00:55:27;20.30;99.90
9658;DHT22;4867;48.112;11.622;2022-07-29T00:57:55;20.40;99.90
9658;DHT22;4867;48.112;11.622;2022-07-29T01:00:25;20.30;99.90
9658;DHT22;4867;48.112;11.622;2022-07-29T01:02:52;20.40;99.90
9658;DHT22;4867;48.112;11.622;2022-07-29T01:05:22;20.40;99.90
9658;DHT22;4867;48.112;11.622;2022-07-29T01:08:13;20.40;99.90
9658;DHT22;4867;48.112;11.622;2022-07-29T01:10:41;20.40;99.90
9658;DHT22;4867;48.112;11.622;2022-07-29T01:13:09;20.40;99.90
9658;DHT22;4867;48.112;11.622;2022-07-29T01:15:44;20.30;99.90
9658;DHT22;4867;48.112;11.622;2022-07-29T01:18:24;20.30;99.90
9658;DHT22;4867;48.112;11.622;2022-07-29T01:26:42;20.30;99.90
9658;DHT22;4867;48.112;11.622;2022-07-29T01:29:36;20.30;99.90
9658;DHT22;4867;48.112;11.622;2022-07-29T01:32:20;20.30;99.90
9658;DHT22;4867;48.112;11.622;2022-07-29T01:35:14;20.30;99.90
9658;DHT22;4867;48.112;11.622;2022-07-29T01:38:00;20.20;99.90
9658;DHT22;4867;48.112;11.622;2022-07-29T01:46:11;20.20;99.90
9658;DHT22;4867;48.112;11.622;2022-07-29T01:48:48;20.20;99.90
9658;DHT22;4867;48.112;11.622;2022-07-29T01:51:25;20.20;99.90
9658;DHT22;4867;48.112;11.622;2022-07-29T01:54:04;20.20;99.90
9658;DHT22;4867;48.112;11.622;2022-07-29T01:56:33;20.20;99.90
9658;DHT22;4867;48.112;11.622;2022-07-29T01:59:06;20.10;99.90
9658;DHT22;4867;48.112;11.622;2022-07-29T02:01:37;20.20;99.90
9658;DHT22;4867;48.112;11.622;2022-07-29T02:04:07;20.20;99.90
9658;DHT22;4867;48.112;11.622;2022-07-29T02:06:38;20.30;99.90
9658;DHT22;4867;48.112;11.622;2022-07-29T02:09:08;20.20;99.90
9658;DHT22;4867;48.112;11.622;2022-07-29T02:11:38;20.20;99.90
9658;DHT22;4867;48.112;11.622;2022-07-29T02:14:07;20.30;99.90
9658;DHT22;4867;48.112;11.622;2022-07-29T02:16:36;20.20;99.90
9658;DHT22;4867;48.112;11.622;2022-07-29T02:19:06;20.20;99.90
9658;DHT22;4867;48.112;11.622;2022-07-29T02:21:35;20.20;99.90
9658;DHT22;4867;48.112;11.622;2022-07-29T02:24:08;20.20;99.90
9658;DHT22;4867;48.112;11.622;2022-07-29T02:26:40;20.20;99.90
9658;DHT22;4867;48.112;11.622;2022-07-29T02:29:08;20.20;99.90
9658;DHT22;4867;48.112;11.622;2022-07-29T02:31:36;20.20;99.90
9658;DHT22;4867;48.112;11.622;2022-07-29T02:34:06;20.20;99.90
9658;DHT22;4867;48.112;11.622;2022-07-29T02:36:34;20.20;99.90
9658;DHT22;4867;48.112;11.622;2022-07-29T02:39:02;20.20;99.90
9658;DHT22;4867;48.112;11.622;2022-07-29T02:42:01;20.20;99.90
9658;DHT22;4867;48.112;11.622;2022-07-29T02:44:30;20.20;99.90
9658;DHT22;4867;48.112;11.622;2022-07-29T02:52:16;20.20;99.90
9658;DHT22;4867;48.112;11.622;2022-07-29T02:55:01;20.10;99.90
9658;DHT22;4867;48.112;11.622;2022-07-29T02:57:33;20.00;99.90
9658;DHT22;4867;48.112;11.622;2022-07-29T03:00:21;20.00;99.90
9658;DHT22;4867;48.112;11.622;2022-07-29T03:02:52;19.90;99.90
9658;DHT22;4867;48.112;11.622;2022-07-29T03:05:20;19.90;99.90
9658;DHT22;4867;48.112;11.622;2022-07-29T03:07:54;19.90;99.90
9658;DHT22;4867;48.112;11.622;2022-07-29T03:10:23;19.90;99.90
9658;DHT22;4867;48.112;11.622;2022-07-29T03:12:51;19.80;99.90
9658;DHT22;4867;48.112;11.622;2022-07-29T03:15:19;19.70;99.90
9658;DHT22;4867;48.112;11.622;2022-07-29T03:17:50;19.60;99.90
9658;DHT22;4867;48.112;11.622;2022-07-29T03:20:17;19.50;99.90
9658;DHT22;4867;48.112;11.622;2022-07-29T03:22:45;19.50;99.90
9658;DHT22;4867;48.112;11.622;2022-07-29T03:25:18;19.40;99.90
9658;DHT22;4867;48.112;11.622;2022-07-29T03:27:46;19.40;99.90
9658;DHT22;4867;48.112;11.622;2022-07-29T03:30:14;19.30;99.90
9658;DHT22;4867;48.112;11.622;2022-07-29T03:32:49;19.30;99.90
9658;DHT22;4867;48.112;11.622;2022-07-29T03:35:21;19.20;99.90
9658;DHT22;4867;48.112;11.622;2022-07-29T03:37:49;19.20;99.90
9658;DHT22;4867;48.112;11.622;2022-07-29T03:40:21;19.20;99.90
9658;DHT22;4867;48.112;11.622;2022-07-29T03:42:51;19.20;99.90
9658;DHT22;4867;48.112;11.622;2022-07-29T03:45:21;19.00;99.90
9658;DHT22;4867;48.112;11.622;2022-07-29T03:47:51;19.00;99.90
9658;DHT22;4867;48.112;11.622;2022-07-29T03:50:28;18.90;99.90
9658;DHT22;4867;48.112;11.622;2022-07-29T03:52:55;18.80;99.90
9658;DHT22;4867;48.112;11.622;2022-07-29T03:55:22;18.80;99.90
9658;DHT22;4867;48.112;11.622;2022-07-29T03:57:50;18.80;99.90
9658;DHT22;4867;48.112;11.622;2022-07-29T04:00:17;18.70;99.90
9658;DHT22;4867;48.112;11.622;2022-07-29T04:02:46;18.70;99.90
9658;DHT22;4867;48.112;11.622;2022-07-29T04:05:15;18.60;99.90
9658;DHT22;4867;48.112;11.622;2022-07-29T04:07:52;18.70;99.90
9658;DHT22;4867;48.112;11.622;2022-07-29T04:10:19;18.70;99.90
9658;DHT22;4867;48.112;11.622;2022-07-29T04:12:58;18.70;99.90
9658;DHT22;4867;48.112;11.622;2022-07-29T04:15:25;18.70;99.90
9658;DHT22;4867;48.112;11.622;2022-07-29T04:17:58;18.70;99.90
9658;DHT22;4867;48.112;11.622;2022-07-29T04:20:25;18.60;99.90
9658;DHT22;4867;48.112;11.622;2022-07-29T04:22:52;18.70;99.90
9658;DHT22;4867;48.112;11.622;2022-07-29T04:25:19;18.70;99.90
9658;DHT22;4867;48.112;11.622;2022-07-29T04:27:46;18.70;99.90
9658;DHT22;4867;48.112;11.622;2022-07-29T04:30:29;18.70;99.90
9658;DHT22;4867;48.112;11.622;2022-07-29T04:32:56;18.70;99.90
9658;DHT22;4867;48.112;11.622;2022-07-29T04:35:23;18.90;99.90
9658;DHT22;4867;48.112;11.622;2022-07-29T04:37:50;19.00;99.90
9658;DHT22;4867;48.112;11.622;2022-07-29T04:40:17;19.20;99.90
9658;DHT22;4867;48.112;11.622;2022-07-29T04:42:43;19.40;99.90
9658;DHT22;4867;48.112;11.622;2022-07-29T04:45:13;19.60;99.90
9658;DHT22;4867;48.112;11.622;2022-07-29T04:47:41;20.00;99.90
9658;DHT22;4867;48.112;11.622;2022-07-29T04:50:09;20.40;99.90
9658;DHT22;4867;48.112;11.622;2022-07-29T04:52:36;20.80;99.90
9658;DHT22;4867;48.112;11.622;2022-07-29T04:55:04;21.20;99.90
9658;DHT22;4867;48.112;11.622;2022-07-29T04:57:31;21.70;99.90
9658;DHT22;4867;48.112;11.622;2022-07-29T04:59:59;22.20;99.90
9658;DHT22;4867;48.112;11.622;2022-07-29T05:02:26;22.50;99.90
9658;DHT22;4867;48.112;11.622;2022-07-29T05:04:53;22.60;99.90
9658;DHT22;4867;48.112;11.622;2022-07-29T05:07:19;22.40;99.90
9658;DHT22;4867;48.112;11.622;2022-07-29T05:09:47;22.40;99.90
9658;DHT22;4867;48.112;11.622;2022-07-29T05:12:13;22.20;99.90
9658;DHT22;4867;48.112;11.622;2022-07-29T05:14:40;22.10;99.90
9658;DHT22;4867;48.112;11.622;2022-07-29T05:17:07;22.10;99.90
9658;DHT22;4867;48.112;11.622;2022-07-29T05:19:34;22.00;99.90
9658;DHT22;4867;48.112;11.622;2022-07-29T05:22:05;21.90;99.90
9658;DHT22;4867;48.112;11.622;2022-07-29T05:24:32;21.80;99.90
9658;DHT22;4867;48.112;11.622;2022-07-29T05:26:59;21.70;99.90
9658;DHT22;4867;48.112;11.622;2022-07-29T05:29:26;21.70;99.90
9658;DHT22;4867;48.112;11.622;2022-07-29T05:32:12;21.60;99.90
9658;DHT22;4867;48.112;11.622;2022-07-29T05:34:40;21.50;99.90
9658;DHT22;4867;48.112;11.622;2022-07-29T05:37:18;21.40;99.90
9658;DHT22;4867;48.112;11.622;2022-07-29T05:39:45;21.40;99.90
9658;DHT22;4867;48.112;11.622;2022-07-29T05:42:23;21.30;99.90
9658;DHT22;4867;48.112;11.622;2022-07-29T05:44:49;21.40;99.90
9658;DHT22;4867;48.112;11.622;2022-07-29T05:47:16;21.40;99.90
9658;DHT22;4867;48.112;11.622;2022-07-29T05:49:43;21.60;99.90
9658;DHT22;4867;48.112;11.622;2022-07-29T05:52:10;21.60;99.90
9658;DHT22;4867;48.112;11.622;2022-07-29T05:54:37;21.70;99.90
9658;DHT22;4867;48.112;11.622;2022-07-29T05:57:04;21.70;99.90
9658;DHT22;4867;48.112;11.622;2022-07-29T05:59:35;21.80;99.90
9658;DHT22;4867;48.112;11.622;2022-07-29T06:02:02;21.90;99.90
9658;DHT22;4867;48.112;11.622;2022-07-29T06:04:32;22.00;99.90
9658;DHT22;4867;48.112;11.622;2022-07-29T06:06:59;22.10;99.90
9658;DHT22;4867;48.112;11.622;2022-07-29T06:09:26;22.20;99.90
9658;DHT22;4867;48.112;11.622;2022-07-29T06:11:54;22.30;99.90
9658;DHT22;4867;48.112;11.622;2022-07-29T06:14:21;22.40;99.90
9658;DHT22;4867;48.112;11.622;2022-07-29T06:16:48;22.50;99.90
9658;DHT22;4867;48.112;11.622;2022-07-29T06:19:16;22.50;99.90
9658;DHT22;4867;48.112;11.622;2022-07-29T06:21:43;22.60;99.90
9658;DHT22;4867;48.112;11.622;2022-07-29T06:24:14;22.60;99.90
9658;DHT22;4867;48.112;11.622;2022-07-29T06:26:42;22.70;99.90
9658;DHT22;4867;48.112;11.622;2022-07-29T06:29:10;22.80;99.90
9658;DHT22;4867;48.112;11.622;2022-07-29T06:31:37;22.90;99.90
9658;DHT22;4867;48.112;11.622;2022-07-29T06:34:04;23.00;99.90
9658;DHT22;4867;48.112;11.622;2022-07-29T06:36:37;23.00;99.90
9658;DHT22;4867;48.112;11.622;2022-07-29T06:39:07;23.10;99.90
9658;DHT22;4867;48.112;11.622;2022-07-29T06:41:34;23.20;99.90
9658;DHT22;4867;48.112;11.622;2022-07-29T06:44:08;23.20;99.90
9658;DHT22;4867;48.112;11.622;2022-07-29T06:46:35;23.20;99.90
9658;DHT22;4867;48.112;11.622;2022-07-29T06:49:03;23.30;99.90
9658;DHT22;4867;48.112;11.622;2022-07-29T06:51:31;23.30;99.90
9658;DHT22;4867;48.112;11.622;2022-07-29T06:53:57;23.50;99.90
9658;DHT22;4867;48.112;11.622;2022-07-29T06:56:33;23.50;99.90
9658;DHT22;4867;48.112;11.622;2022-07-29T06:59:06;23.60;99.90
9658;DHT22;4867;48.112;11.622;2022-07-29T07:01:34;23.70;99.90
9658;DHT22;4867;48.112;11.622;2022-07-29T07:04:01;23.70;99.90
9658;DHT22;4867;48.112;11.622;2022-07-29T07:06:28;23.80;99.90
9658;DHT22;4867;48.112;11.622;2022-07-29T07:08:55;24.00;99.90
9658;DHT22;4867;48.112;11.622;2022-07-29T07:11:22;23.90;99.90
9658;DHT22;4867;48.112;11.622;2022-07-29T07:13:51;23.90;99.90
9658;DHT22;4867;48.112;11.622;2022-07-29T07:16:18;23.90;99.90
9658;DHT22;4867;48.112;11.622;2022-07-29T07:18:45;24.00;99.90
9658;DHT22;4867;48.112;11.622;2022-07-29T07:21:12;24.10;99.90
9658;DHT22;4867;48.112;11.622;2022-07-29T07:23:45;24.10;99.90
9658;DHT22;4867;48.112;11.622;2022-07-29T07:26:12;24.20;99.90
9658;DHT22;4867;48.112;11.622;2022-07-29T07:28:39;24.30;99.90
9658;DHT22;4867;48.112;11.622;2022-07-29T07:31:06;24.40;99.90
9658;DHT22;4867;48.112;11.622;2022-07-29T07:33:33;24.40;99.90
9658;DHT22;4867;48.112;11.622;2022-07-29T07:36:00;24.40;99.90
9658;DHT22;4867;48.112;11.622;2022-07-29T07:38:27;24.30;99.90
9658;DHT22;4867;48.112;11.622;2022-07-29T07:40:53;24.40;99.90
9658;DHT22;4867;48.112;11.622;2022-07-29T07:43:20;24.40;99.90
9658;DHT22;4867;48.112;11.622;2022-07-29T07:45:48;24.50;99.90
9658;DHT22;4867;48.112;11.622;2022-07-29T07:48:15;24.40;99.90
9658;DHT22;4867;48.112;11.622;2022-07-29T07:50:41;24.40;99.90
9658;DHT22;4867;48.112;11.622;2022-07-29T07:53:10;24.30;99.90
9658;DHT22;4867;48.112;11.622;2022-07-29T07:55:41;24.50;99.90
9658;DHT22;4867;48.112;11.622;2022-07-29T07:58:29;24.50;99.90
9658;DHT22;4867;48.112;11.622;2022-07-29T08:00:55;24.50;99.90
9658;DHT22;4867;48.112;11.622;2022-07-29T08:03:22;24.60;99.90
9658;DHT22;4867;48.112;11.622;2022-07-29T08:05:49;24.60;99.90
9658;DHT22;4867;48.112;11.622;2022-07-29T08:08:18;24.70;99.90
9658;DHT22;4867;48.112;11.622;2022-07-29T08:10:45;24.80;99.90
9658;DHT22;4867;48.112;11.622;2022-07-29T08:13:31;24.80;99.90
9658;DHT22;4867;48.112;11.622;2022-07-29T08:15:59;24.90;99.90
9658;DHT22;4867;48.112;11.622;2022-07-29T08:18:39;24.90;99.90
9658;DHT22;4867;48.112;11.622;2022-07-29T08:21:06;25.00;99.90
9658;DHT22;4867;48.112;11.622;2022-07-29T08:23:34;25.00;99.90
9658;DHT22;4867;48.112;11.622;2022-07-29T08:26:19;25.10;99.90
9658;DHT22;4867;48.112;11.622;2022-07-29T08:28:47;25.30;99.90
9658;DHT22;4867;48.112;11.622;2022-07-29T08:31:16;25.40;99.90
9658;DHT22;4867;48.112;11.622;2022-07-29T08:33:43;25.40;99.90
9658;DHT22;4867;48.112;11.622;2022-07-29T08:36:10;25.50;99.90
9658;DHT22;4867;48.112;11.622;2022-07-29T08:38:39;25.60;99.90
9658;DHT22;4867;48.112;11.622;2022-07-29T08:41:06;25.50;99.90
9658;DHT22;4867;48.112;11.622;2022-07-29T08:43:32;25.50;99.90
9658;DHT22;4867;48.112;11.622;2022-07-29T08:46:01;25.60;99.90
9658;DHT22;4867;48.112;11.622;2022-07-29T08:48:28;25.70;99.90
9658;DHT22;4867;48.112;11.622;2022-07-29T08:50:56;25.60;99.90
9658;DHT22;4867;48.112;11.622;2022-07-29T08:53:25;25.60;99.90
9658;DHT22;4867;48.112;11.622;2022-07-29T08:55:54;25.80;99.90
9658;DHT22;4867;48.112;11.622;2022-07-29T08:58:21;26.00;99.90
9658;DHT22;4867;48.112;11.622;2022-07-29T09:00:55;26.20;99.90
9658;DHT22;4867;48.112;11.622;2022-07-29T09:03:25;26.30;99.90
9658;DHT22;4867;48.112;11.622;2022-07-29T09:05:53;26.50;99.90
9658;DHT22;4867;48.112;11.622;2022-07-29T09:08:21;26.50;99.90
9658;DHT22;4867;48.112;11.622;2022-07-29T09:10:48;26.40;99.90
9658;DHT22;4867;48.112;11.622;2022-07-29T09:13:16;26.30;99.90
9658;DHT22;4867;48.112;11.622;2022-07-29T09:15:44;26.30;99.90
9658;DHT22;4867;48.112;11.622;2022-07-29T09:18:11;26.10;99.90
9658;DHT22;4867;48.112;11.622;2022-07-29T09:20:56;26.10;99.90
9658;DHT22;4867;48.112;11.622;2022-07-29T09:26:30;26.40;99.90
9658;DHT22;4867;48.112;11.622;2022-07-29T09:28:58;26.50;99.90
9658;DHT22;4867;48.112;11.622;2022-07-29T09:31:34;26.80;99.90
9658;DHT22;4867;48.112;11.622;2022-07-29T09:34:01;27.20;99.90
9658;DHT22;4867;48.112;11.622;2022-07-29T09:36:28;27.40;99.90
9658;DHT22;4867;48.112;11.622;2022-07-29T09:39:02;27.60;99.90
9658;DHT22;4867;48.112;11.622;2022-07-29T09:41:30;27.90;99.90
9658;DHT22;4867;48.112;11.622;2022-07-29T09:44:09;28.00;99.90
9658;DHT22;4867;48.112;11.622;2022-07-29T09:46:37;28.20;99.90
9658;DHT22;4867;48.112;11.622;2022-07-29T09:49:12;28.30;99.90
9658;DHT22;4867;48.112;11.622;2022-07-29T09:51:39;28.50;99.90
9658;DHT22;4867;48.112;11.622;2022-07-29T09:54:36;28.50;99.90
9658;DHT22;4867;48.112;11.622;2022-07-29T09:57:08;28.40;99.90
9658;DHT22;4867;48.112;11.622;2022-07-29T09:59:39;28.40;99.90
9658;DHT22;4867;48.112;11.622;2022-07-29T10:02:16;28.30;99.90
9658;DHT22;4867;48.112;11.622;2022-07-29T10:04:49;28.20;99.90
9658;DHT22;4867;48.112;11.622;2022-07-29T10:07:16;28.20;99.90
9658;DHT22;4867;48.112;11.622;2022-07-29T10:09:56;28.10;99.90
9658;DHT22;4867;48.112;11.622;2022-07-29T10:12:24;28.00;99.90
9658;DHT22;4867;48.112;11.622;2022-07-29T10:14:51;27.30;99.90
9658;DHT22;4867;48.112;11.622;2022-07-29T10:17:18;27.10;99.90
9658;DHT22;4867;48.112;11.622;2022-07-29T10:19:46;27.00;99.90
9658;DHT22;4867;48.112;11.622;2022-07-29T10:22:13;26.90;99.90
9658;DHT22;4867;48.112;11.622;2022-07-29T10:24:40;26.90;99.90
9658;DHT22;4867;48.112;11.622;2022-07-29T10:27:08;26.90;99.90
9658;DHT22;4867;48.112;11.622;2022-07-29T10:29:35;26.60;99.90
9658;DHT22;4867;48.112;11.622;2022-07-29T10:32:27;26.50;99.90
9658;DHT22;4867;48.112;11.622;2022-07-29T10:35:18;26.40;99.90
9658;DHT22;4867;48.112;11.622;2022-07-29T10:40:57;26.40;99.90
9658;DHT22;4867;48.112;11.622;2022-07-29T10:43:47;26.40;99.90
9658;DHT22;4867;48.112;11.622;2022-07-29T10:46:17;26.60;99.90
9658;DHT22;4867;48.112;11.622;2022-07-29T10:49:11;26.70;99.90
9658;DHT22;4867;48.112;11.622;2022-07-29T10:59:44;26.80;99.90
9658;DHT22;4867;48.112;11.622;2022-07-29T11:05:11;27.30;99.90
9658;DHT22;4867;48.112;11.622;2022-07-29T11:08:16;27.60;99.90
9658;DHT22;4867;48.112;11.622;2022-07-29T11:10:27;27.80;99.90
9658;DHT22;4867;48.112;11.622;2022-07-29T11:12:57;27.60;99.90
9658;DHT22;4867;48.112;11.622;2022-07-29T11:15:25;27.80;99.90
9658;DHT22;4867;48.112;11.622;2022-07-29T11:23:27;28.30;99.90
9658;DHT22;4867;48.112;11.622;2022-07-29T11:26:13;28.30;99.90
9658;DHT22;4867;48.112;11.622;2022-07-29T11:31:43;28.40;99.90
9658;DHT22;4867;48.112;11.622;2022-07-29T11:48:00;29.70;99.90
9658;DHT22;4867;48.112;11.622;2022-07-29T11:50:47;29.80;99.10
9658;DHT22;4867;48.112;11.622;2022-07-29T11:53:15;29.90;98.70
9658;DHT22;4867;48.112;11.622;2022-07-29T11:55:42;30.10;98.10
9658;DHT22;4867;48.112;11.622;2022-07-29T11:58:22;30.20;98.30
9658;DHT22;4867;48.112;11.622;2022-07-29T12:00:52;30.30;97.20
9658;DHT22;4867;48.112;11.622;2022-07-29T12:03:26;30.20;97.70
9658;DHT22;4867;48.112;11.622;2022-07-29T12:06:03;30.10;97.10
9658;DHT22;4867;48.112;11.622;2022-07-29T12:08:40;30.00;97.50
9658;DHT22;4867;48.112;11.622;2022-07-29T12:11:15;30.00;97.00
9658;DHT22;4867;48.112;11.622;2022-07-29T12:13:46;30.10;97.60
9658;DHT22;4867;48.112;11.622;2022-07-29T12:16:15;30.10;96.30
9658;DHT22;4867;48.112;11.622;2022-07-29T12:19:02;30.00;97.20
9658;DHT22;4867;48.112;11.622;2022-07-29T12:24:25;30.00;97.10
9658;DHT22;4867;48.112;11.622;2022-07-29T12:26:58;30.00;97.00
9658;DHT22;4867;48.112;11.622;2022-07-29T12:29:25;29.90;96.80
9658;DHT22;4867;48.112;11.622;2022-07-29T12:32:02;29.80;96.60
9658;DHT22;4867;48.112;11.622;2022-07-29T12:34:31;29.60;96.90
9658;DHT22;4867;48.112;11.622;2022-07-29T12:36:58;29.70;96.80
9658;DHT22;4867;48.112;11.622;2022-07-29T12:39:26;29.80;97.20
9658;DHT22;4867;48.112;11.622;2022-07-29T12:41:54;29.80;96.60
9658;DHT22;4867;48.112;11.622;2022-07-29T12:44:49;29.80;94.80
9658;DHT22;4867;48.112;11.622;2022-07-29T12:47:18;29.50;94.20
9658;DHT22;4867;48.112;11.622;2022-07-29T12:49:47;29.20;94.10
9658;DHT22;4867;48.112;11.622;2022-07-29T12:52:27;29.20;95.20
9658;DHT22;4867;48.112;11.622;2022-07-29T12:54:54;29.30;96.10
9658;DHT22;4867;48.112;11.622;2022-07-29T12:57:21;29.10;95.30
9658;DHT22;4867;48.112;11.622;2022-07-29T13:00:09;29.10;95.40
9658;DHT22;4867;48.112;11.622;2022-07-29T13:02:39;29.00;95.30
9658;DHT22;4867;48.112;11.622;2022-07-29T13:05:07;28.90;96.40
9658;DHT22;4867;48.112;11.622;2022-07-29T13:07:35;28.90;96.30
9658;DHT22;4867;48.112;11.622;2022-07-29T13:10:21;28.90;97.10
9658;DHT22;4867;48.112;11.622;2022-07-29T13:13:19;28.60;96.50
9658;DHT22;4867;48.112;11.622;2022-07-29T13:15:46;28.30;96.30
9658;DHT22;4867;48.112;11.622;2022-07-29T13:18:32;28.00;96.60
9658;DHT22;4867;48.112;11.622;2022-07-29T13:21:13;27.80;96.70
9658;DHT22;4867;48.112;11.622;2022-07-29T13:23:42;27.70;97.30
9658;DHT22;4867;48.112;11.622;2022-07-29T13:26:10;27.60;97.50
9658;DHT22;4867;48.112;11.622;2022-07-29T13:28:38;27.40;97.50
9658;DHT22;4867;48.112;11.622;2022-07-29T13:31:05;27.20;97.70
9658;DHT22;4867;48.112;11.622;2022-07-29T13:33:32;27.10;97.90
9658;DHT22;4867;48.112;11.622;2022-07-29T13:35:59;26.90;97.70
9658;DHT22;4867;48.112;11.622;2022-07-29T13:38:26;26.70;98.30
9658;DHT22;4867;48.112;11.622;2022-07-29T13:40:57;26.40;98.70
9658;DHT22;4867;48.112;11.622;2022-07-29T13:43:24;26.30;99.40
9658;DHT22;4867;48.112;11.622;2022-07-29T13:45:51;26.30;99.70
9658;DHT22;4867;48.112;11.622;2022-07-29T13:48:18;26.20;99.90
9658;DHT22;4867;48.112;11.622;2022-07-29T13:50:45;26.00;99.90
9658;DHT22;4867;48.112;11.622;2022-07-29T13:53:13;26.10;99.90
9658;DHT22;4867;48.112;11.622;2022-07-29T13:55:45;26.20;99.90
9658;DHT22;4867;48.112;11.622;2022-07-29T13:58:12;26.40;99.90
9658;DHT22;4867;48.112;11.622;2022-07-29T14:00:39;26.60;99.90
9658;DHT22;4867;48.112;11.622;2022-07-29T14:03:06;26.60;99.90
9658;DHT22;4867;48.112;11.622;2022-07-29T14:05:33;26.80;99.90
9658;DHT22;4867;48.112;11.622;2022-07-29T14:08:00;27.00;99.90
9658;DHT22;4867;48.112;11.622;2022-07-29T14:10:27;27.10;99.60
9658;DHT22;4867;48.112;11.622;2022-07-29T14:12:54;27.20;99.90
9658;DHT22;4867;48.112;11.622;2022-07-29T14:15:20;27.40;99.90
9658;DHT22;4867;48.112;11.622;2022-07-29T14:17:47;27.50;99.90
9658;DHT22;4867;48.112;11.622;2022-07-29T14:20:14;27.40;99.90
9658;DHT22;4867;48.112;11.622;2022-07-29T14:22:42;27.50;99.90
9658;DHT22;4867;48.112;11.622;2022-07-29T14:25:11;27.50;99.90
9658;DHT22;4867;48.112;11.622;2022-07-29T14:27:42;27.70;99.90
9658;DHT22;4867;48.112;11.622;2022-07-29T14:30:09;27.80;99.90
9658;DHT22;4867;48.112;11.622;2022-07-29T14:32:37;27.70;99.70
9658;DHT22;4867;48.112;11.622;2022-07-29T14:35:05;27.40;99.20
9658;DHT22;4867;48.112;11.622;2022-07-29T14:37:32;27.30;99.60
9658;DHT22;4867;48.112;11.622;2022-07-29T14:40:07;27.20;99.70
9658;DHT22;4867;48.112;11.622;2022-07-29T14:42:34;27.10;99.60
9658;DHT22;4867;48.112;11.622;2022-07-29T14:45:03;27.00;99.60
9658;DHT22;4867;48.112;11.622;2022-07-29T14:47:32;27.00;99.90
9658;DHT22;4867;48.112;11.622;2022-07-29T14:49:59;27.10;99.40
9658;DHT22;4867;48.112;11.622;2022-07-29T14:52:26;27.20;99.70
9658;DHT22;4867;48.112;11.622;2022-07-29T14:54:53;27.30;99.70
9658;DHT22;4867;48.112;11.622;2022-07-29T14:57:20;27.20;99.60
9658;DHT22;4867;48.112;11.622;2022-07-29T14:59:46;27.10;98.50
9658;DHT22;4867;48.112;11.622;2022-07-29T15:02:13;26.80;98.90
9658;DHT22;4867;48.112;11.622;2022-07-29T15:04:40;26.70;99.20
9658;DHT22;4867;48.112;11.622;2022-07-29T15:07:07;26.60;99.00
9658;DHT22;4867;48.112;11.622;2022-07-29T15:09:34;26.60;99.50
9658;DHT22;4867;48.112;11.622;2022-07-29T15:12:15;26.50;99.00
9658;DHT22;4867;48.112;11.622;2022-07-29T15:14:42;26.40;99.60
9658;DHT22;4867;48.112;11.622;2022-07-29T15:17:09;26.30;99.90
9658;DHT22;4867;48.112;11.622;2022-07-29T15:19:36;26.20;99.90
9658;DHT22;4867;48.112;11.622;2022-07-29T15:22:03;26.20;99.60
9658;DHT22;4867;48.112;11.622;2022-07-29T15:24:32;26.20;99.90
9658;DHT22;4867;48.112;11.622;2022-07-29T15:26:59;26.20;99.90
9658;DHT22;4867;48.112;11.622;2022-07-29T15:29:26;26.00;99.90
9658;DHT22;4867;48.112;11.622;2022-07-29T15:31:52;26.00;99.90
9658;DHT22;4867;48.112;11.622;2022-07-29T15:34:20;25.90;99.90
9658;DHT22;4867;48.112;11.622;2022-07-29T15:36:47;25.90;99.90
9658;DHT22;4867;48.112;11.622;2022-07-29T15:39:19;25.80;99.90
9658;DHT22;4867;48.112;11.622;2022-07-29T15:41:47;25.80;99.90
9658;DHT22;4867;48.112;11.622;2022-07-29T15:44:13;25.80;99.90
9658;DHT22;4867;48.112;11.622;2022-07-29T15:46:40;25.80;99.90
9658;DHT22;4867;48.112;11.622;2022-07-29T15:49:27;25.70;99.90
9658;DHT22;4867;48.112;11.622;2022-07-29T15:52:19;25.60;99.90
9658;DHT22;4867;48.112;11.622;2022-07-29T15:54:55;25.60;99.90
9658;DHT22;4867;48.112;11.622;2022-07-29T15:57:24;25.40;99.90
9658;DHT22;4867;48.112;11.622;2022-07-29T15:59:50;25.30;99.90
9658;DHT22;4867;48.112;11.622;2022-07-29T16:02:17;25.20;99.90
9658;DHT22;4867;48.112;11.622;2022-07-29T16:04:44;25.20;99.90
9658;DHT22;4867;48.112;11.622;2022-07-29T16:07:11;25.00;99.90
9658;DHT22;4867;48.112;11.622;2022-07-29T16:09:40;24.90;99.90
9658;DHT22;4867;48.112;11.622;2022-07-29T16:12:07;24.90;99.90
9658;DHT22;4867;48.112;11.622;2022-07-29T16:14:41;24.80;99.90
9658;DHT22;4867;48.112;11.622;2022-07-29T16:17:08;24.80;99.90
9658;DHT22;4867;48.112;11.622;2022-07-29T16:19:40;24.80;99.90
9658;DHT22;4867;48.112;11.622;2022-07-29T16:22:08;24.70;99.90
9658;DHT22;4867;48.112;11.622;2022-07-29T16:24:35;24.60;99.90
9658;DHT22;4867;48.112;11.622;2022-07-29T16:27:03;24.50;99.90
9658;DHT22;4867;48.112;11.622;2022-07-29T16:29:29;24.50;99.90
9658;DHT22;4867;48.112;11.622;2022-07-29T16:31:56;24.50;99.90
9658;DHT22;4867;48.112;11.622;2022-07-29T16:34:23;24.50;99.90
9658;DHT22;4867;48.112;11.622;2022-07-29T16:36:50;24.40;99.90
9658;DHT22;4867;48.112;11.622;2022-07-29T16:39:17;24.40;99.90
9658;DHT22;4867;48.112;11.622;2022-07-29T16:41:43;24.30;99.90
9658;DHT22;4867;48.112;11.622;2022-07-29T16:44:10;24.30;99.90
9658;DHT22;4867;48.112;11.622;2022-07-29T16:46:37;24.20;99.90
9658;DHT22;4867;48.112;11.622;2022-07-29T16:49:07;24.20;99.90
9658;DHT22;4867;48.112;11.622;2022-07-29T16:51:34;24.10;99.90
9658;DHT22;4867;48.112;11.622;2022-07-29T16:54:00;24.00;99.90
9658;DHT22;4867;48.112;11.622;2022-07-29T16:56:27;23.90;99.90
9658;DHT22;4867;48.112;11.622;2022-07-29T16:58:56;23.90;99.90
9658;DHT22;4867;48.112;11.622;2022-07-29T17:01:23;24.00;99.90
9658;DHT22;4867;48.112;11.622;2022-07-29T17:03:50;23.90;99.90